Time;durP1;ratioP1;P1;durP2;ratioP2;P2;SDS_P1;SDS_P2;PMS_P1;PMS_P2;Temp;Humidity;BMP_temperature;BMP_pressure;BME280_temperature;BME280_humidity;BME280_pressure;Samples;Min_cycle;Max_cycle;Signal;HPM_P1;HPM_P2
2023/04/15 00:01:21;;;;;;;12.60;7.15;;;;;;;7.88;87.75;100779.91;6092751;23;20085;-69
2023/04/15 00:03:47;;;;;;;10.98;6.63;;;;;;;7.85;88.31;100773.00;6094451;23;20049;-69
2023/04/15 00:06:13;;;;;;;15.48;7.63;;;;;;;7.77;88.78;100775.19;6092912;23;20014;-71
2023/04/15 00:08:40;;;;;;;13.25;7.20;;;;;;;7.62;90.65;100781.28;6091863;23;20026;-70
2023/04/15 00:11:06;;;;;;;17.08;7.88;;;;;;;7.53;92.10;100780.00;6094217;23;20093;-70
2023/04/15 00:13:32;;;;;;;13.45;7.30;;;;;;;7.74;91.11;100781.53;6091047;23;20129;-69
2023/04/15 00:15:58;;;;;;;13.50;7.13;;;;;;;7.34;92.90;100774.78;6093709;23;20170;-70
2023/04/15 00:18:24;;;;;;;11.75;7.07;;;;;;;7.35;93.54;100776.47;6089824;23;20013;-70
2023/04/15 00:20:49;;;;;;;13.23;7.40;;;;;;;7.16;97.13;100784.50;6093254;23;20025;-69
2023/04/15 00:23:15;;;;;;;19.10;7.63;;;;;;;7.07;98.77;100781.44;6066427;23;20032;-70
2023/04/15 00:25:41;;;;;;;14.18;7.25;;;;;;;7.35;98.59;100779.13;6093096;23;20650;-70
2023/04/15 00:28:07;;;;;;;13.23;7.45;;;;;;;7.51;97.36;100782.72;6094596;23;20018;-69
2023/04/15 00:30:34;;;;;;;12.38;7.97;;;;;;;7.59;95.94;100782.31;6093719;23;20018;-69
2023/04/15 00:33:01;;;;;;;15.35;7.85;;;;;;;7.77;94.86;100785.81;6093155;23;20144;-69
2023/04/15 00:35:27;;;;;;;16.33;6.88;;;;;;;7.81;96.15;100778.53;6091531;23;20385;-69
2023/04/15 00:37:52;;;;;;;15.45;7.43;;;;;;;7.92;93.60;100778.81;6093874;23;20453;-69
2023/04/15 00:40:20;;;;;;;17.40;8.00;;;;;;;7.90;93.95;100780.72;6093049;23;20084;-70
2023/04/15 00:42:46;;;;;;;18.40;7.68;;;;;;;7.93;94.40;100780.53;6089541;23;20014;-69
2023/04/15 00:45:12;;;;;;;17.48;7.40;;;;;;;7.16;95.43;100776.53;6093744;23;20065;-70
2023/04/15 00:47:41;;;;;;;12.40;7.93;;;;;;;7.57;97.32;100776.22;6094663;23;20025;-70
2023/04/15 00:50:08;;;;;;;12.68;7.28;;;;;;;7.47;98.07;100783.81;6094353;23;20068;-70
2023/04/15 00:52:34;;;;;;;15.40;8.15;;;;;;;7.56;98.39;100790.44;6091616;23;20021;-70
2023/04/15 00:55:00;;;;;;;17.67;8.20;;;;;;;7.27;99.94;100782.16;6092851;23;20014;-70
2023/04/15 00:57:27;;;;;;;12.07;7.35;;;;;;;7.35;100.00;100781.78;6092503;23;20013;-69
2023/04/15 00:59:55;;;;;;;14.85;7.30;;;;;;;7.41;100.00;100780.59;6092582;23;20666;-70
2023/04/15 01:02:21;;;;;;;13.43;9.02;;;;;;;7.31;100.00;100779.38;6094753;23;20025;-71
2023/04/15 01:04:47;;;;;;;14.27;8.63;;;;;;;7.30;100.00;100786.47;6095084;23;20089;-70
2023/04/15 01:07:13;;;;;;;17.13;7.93;;;;;;;7.16;100.00;100776.53;6093546;23;20291;-69
2023/04/15 01:09:39;;;;;;;13.27;8.05;;;;;;;7.43;100.00;100787.56;6091248;23;20133;-72
2023/04/15 01:12:07;;;;;;;16.23;8.45;;;;;;;7.42;100.00;100791.13;6094850;23;20018;-71
2023/04/15 01:14:33;;;;;;;11.93;8.20;;;;;;;7.30;100.00;100786.47;6092005;23;20476;-72
2023/04/15 01:16:59;;;;;;;18.55;7.07;;;;;;;7.35;100.00;100783.59;6095318;23;20017;-71
2023/04/15 01:19:26;;;;;;;15.30;8.13;;;;;;;7.41;100.00;100788.56;6092232;23;20076;-68
2023/04/15 01:21:52;;;;;;;15.40;7.25;;;;;;;7.15;100.00;100788.09;6092305;23;20523;-71
2023/04/15 01:24:18;;;;;;;16.38;7.72;;;;;;;7.03;100.00;100788.72;6094030;23;20092;-71
2023/04/15 01:26:44;;;;;;;12.75;7.75;;;;;;;7.09;100.00;100787.56;6096486;23;20112;-71
2023/04/15 01:29:09;;;;;;;11.68;7.80;;;;;;;7.19;100.00;100788.81;6093711;23;20669;-69
2023/04/15 01:31:36;;;;;;;14.38;8.43;;;;;;;7.15;100.00;100782.78;6092088;23;20041;-72
2023/04/15 01:34:01;;;;;;;15.70;7.57;;;;;;;7.16;100.00;100786.31;6091801;23;20017;-69
2023/04/15 01:36:27;;;;;;;13.50;7.35;;;;;;;7.25;100.00;100792.00;6094444;23;20189;-70
2023/04/15 01:38:56;;;;;;;12.57;6.97;;;;;;;7.50;100.00;100788.97;6094254;23;20005;-71
2023/04/15 01:41:25;;;;;;;14.18;7.68;;;;;;;7.52;100.00;100784.41;6093383;23;20013;-69
2023/04/15 01:43:52;;;;;;;13.35;7.60;;;;;;;7.34;100.00;100777.44;6091755;23;20068;-71
2023/04/15 01:46:18;;;;;;;11.70;7.70;;;;;;;7.35;100.00;100780.94;6093523;23;20113;-72
2023/04/15 01:48:44;;;;;;;15.27;8.02;;;;;;;7.40;100.00;100785.06;6095497;23;20036;-69
2023/04/15 01:51:10;;;;;;;13.27;7.70;;;;;;;7.27;100.00;100790.13;6092764;23;20014;-71
2023/04/15 01:53:36;;;;;;;14.60;7.72;;;;;;;7.27;100.00;100784.81;6093049;23;20010;-71
2023/04/15 01:56:01;;;;;;;16.38;7.97;;;;;;;7.30;100.00;100791.78;6090610;23;20041;-72
2023/04/15 01:58:28;;;;;;;11.30;7.38;;;;;;;7.17;100.00;100788.88;6090589;23;20022;-71
2023/04/15 02:00:53;;;;;;;18.13;7.93;;;;;;;7.22;100.00;100794.78;6093568;23;20235;-71
2023/04/15 02:03:19;;;;;;;15.63;7.35;;;;;;;6.75;100.00;100794.50;6093104;23;20021;-71
2023/04/15 02:05:45;;;;;;;11.85;7.57;;;;;;;6.80;100.00;100796.94;6093104;23;20344;-72
2023/04/15 02:08:11;;;;;;;19.50;8.10;;;;;;;6.92;100.00;100798.97;6089090;23;20733;-69
2023/04/15 02:10:38;;;;;;;20.15;8.65;;;;;;;7.16;100.00;100792.47;6093380;23;20445;-71
2023/04/15 02:13:04;;;;;;;17.23;8.23;;;;;;;7.07;100.00;100798.22;6094316;23;20024;-71
2023/04/15 02:15:32;;;;;;;21.58;8.95;;;;;;;7.08;100.00;100801.72;6091683;23;20018;-69
2023/04/15 02:17:59;;;;;;;13.50;7.70;;;;;;;6.85;100.00;100808.16;6094688;23;20270;-71
2023/04/15 02:20:25;;;;;;;16.48;8.30;;;;;;;6.73;100.00;100805.19;6090782;23;20068;-71
2023/04/15 02:22:51;;;;;;;12.73;7.38;;;;;;;6.28;100.00;100815.28;6091714;23;20776;-71
2023/04/15 02:25:17;;;;;;;16.30;8.35;;;;;;;6.07;100.00;100822.41;6091718;23;20014;-71
2023/04/15 02:27:45;;;;;;;11.07;8.23;;;;;;;6.33;100.00;100831.84;6093028;23;20017;-71
2023/04/15 02:30:11;;;;;;;19.45;8.95;;;;;;;6.47;100.00;100824.09;6093369;23;20456;-70
2023/04/15 02:32:37;;;;;;;16.90;8.30;;;;;;;6.48;100.00;100818.72;6094145;23;20499;-69
2023/04/15 02:35:07;;;;;;;18.83;8.77;;;;;;;6.36;100.00;100824.59;6093796;23;20020;-71
2023/04/15 02:37:39;;;;;;;14.55;8.00;;;;;;;6.33;100.00;100822.09;6067445;23;20332;-69
2023/04/15 02:40:07;;;;;;;;;;;;;;;6.26;100.00;100823.28;6095870;23;20112;-70
2023/04/15 02:42:32;;;;;;;18.30;8.60;;;;;;;6.27;100.00;100830.28;6093927;23;19969;-70
2023/04/15 02:45:00;;;;;;;17.98;8.80;;;;;;;5.96;100.00;100831.69;6094804;23;20107;-70
2023/04/15 02:47:30;;;;;;;17.42;8.82;;;;;;;6.29;100.00;100832.91;6096831;23;20037;-70
2023/04/15 02:49:57;;;;;;;24.58;9.00;;;;;;;6.14;100.00;100837.09;6097272;23;20077;-70
2023/04/15 02:52:23;;;;;;;13.18;8.10;;;;;;;6.16;100.00;100844.03;6093905;23;20511;-70
2023/04/15 02:54:49;;;;;;;20.33;8.75;;;;;;;6.22;100.00;100832.28;6092253;23;20041;-70
2023/04/15 02:57:14;;;;;;;14.70;8.45;;;;;;;6.07;100.00;100838.28;6095526;23;20723;-71
2023/04/15 02:59:40;;;;;;;16.67;8.02;;;;;;;6.09;100.00;100845.25;6093619;23;20736;-71
2023/04/15 03:02:07;;;;;;;22.42;8.57;;;;;;;5.91;100.00;100848.66;6095053;23;20668;-69
2023/04/15 03:04:33;;;;;;;16.92;8.57;;;;;;;5.89;100.00;100845.22;6095233;23;20104;-70
2023/04/15 03:06:59;;;;;;;20.15;9.00;;;;;;;6.00;100.00;100840.34;6095430;23;20022;-70
2023/04/15 03:09:27;;;;;;;22.15;9.65;;;;;;;6.09;100.00;100847.03;6092562;23;20018;-71
2023/04/15 03:11:53;;;;;;;15.68;8.05;;;;;;;6.01;100.00;100843.84;6096350;23;20030;-71
2023/04/15 03:14:20;;;;;;;16.52;9.10;;;;;;;5.82;100.00;100839.34;6092838;23;20018;-70
2023/04/15 03:16:49;;;;;;;21.38;8.93;;;;;;;5.81;100.00;100842.91;6095407;23;20583;-70
2023/04/15 03:19:18;;;;;;;17.95;8.75;;;;;;;5.70;100.00;100850.47;6097197;23;20177;-70
2023/04/15 03:21:43;;;;;;;15.43;8.82;;;;;;;5.88;100.00;100856.75;6070482;23;20017;-71
2023/04/15 03:24:09;;;;;;;20.77;9.15;;;;;;;5.98;100.00;100847.53;6070736;23;20069;-70
2023/04/15 03:26:35;;;;;;;17.45;9.68;;;;;;;6.10;100.00;100851.41;6096720;23;20014;-71
2023/04/15 03:29:08;;;;;;;16.35;10.27;;;;;;;6.13;100.00;100854.78;6094876;23;20096;-71
2023/04/15 03:31:33;;;;;;;17.98;9.85;;;;;;;5.62;100.00;100864.03;6094419;23;20104;-70
2023/04/15 03:33:59;;;;;;;17.80;9.73;;;;;;;5.58;100.00;100862.44;6098342;23;20029;-69
2023/04/15 03:36:34;;;;;;;16.42;9.00;;;;;;;5.44;100.00;100865.66;6097499;23;20014;-71
2023/04/15 03:39:03;;;;;;;21.23;9.95;;;;;;;5.26;100.00;100868.19;6095500;23;20017;-71
2023/04/15 03:41:30;;;;;;;20.27;12.60;;;;;;;5.43;100.00;100871.00;6093962;23;20349;-70
2023/04/15 03:43:57;;;;;;;19.63;9.15;;;;;;;5.43;100.00;100873.66;6096522;23;20161;-70
2023/04/15 03:46:24;;;;;;;18.90;9.70;;;;;;;5.29;100.00;100887.44;6097639;23;20096;-70
2023/04/15 03:48:50;;;;;;;20.35;10.27;;;;;;;5.22;100.00;100880.69;6096164;23;20010;-71
2023/04/15 03:51:17;;;;;;;28.48;10.80;;;;;;;5.14;100.00;100880.13;6093774;23;20172;-71
2023/04/15 03:53:43;;;;;;;16.85;10.32;;;;;;;5.02;100.00;100892.06;6095521;23;20009;-71
2023/04/15 03:56:08;;;;;;;22.98;10.82;;;;;;;5.14;100.00;100882.78;6095391;23;20013;-70
2023/04/15 03:58:34;;;;;;;22.98;11.95;;;;;;;5.10;100.00;100892.59;6097850;23;20010;-71
2023/04/15 04:01:06;;;;;;;20.10;10.15;;;;;;;4.93;100.00;100897.72;6097742;23;20266;-70
2023/04/15 04:03:38;;;;;;;23.95;11.32;;;;;;;4.98;100.00;100906.31;6097820;23;20344;-70
2023/04/15 04:06:07;;;;;;;20.00;11.57;;;;;;;4.91;100.00;100897.75;6094759;23;20018;-71
2023/04/15 04:08:33;;;;;;;19.80;11.50;;;;;;;5.09;100.00;100898.81;6097132;23;20292;-70
2023/04/15 04:10:59;;;;;;;22.15;10.20;;;;;;;4.89;100.00;100896.97;6096699;23;20017;-70
2023/04/15 04:13:24;;;;;;;23.75;9.98;;;;;;;4.96;100.00;100902.84;6092670;23;20013;-69
2023/04/15 04:15:50;;;;;;;19.73;10.85;;;;;;;4.91;100.00;100910.09;6096738;23;20018;-70
2023/04/15 04:18:16;;;;;;;25.52;11.15;;;;;;;5.01;100.00;100908.81;6095150;23;20017;-71
2023/04/15 04:20:42;;;;;;;21.75;11.07;;;;;;;5.11;100.00;100906.66;6096246;23;20017;-70
2023/04/15 04:23:08;;;;;;;22.50;11.45;;;;;;;4.90;100.00;100917.16;6095437;23;20857;-70
2023/04/15 04:25:33;;;;;;;18.08;11.32;;;;;;;4.80;100.00;100918.44;6092737;23;20029;-70
2023/04/15 04:27:59;;;;;;;23.27;12.00;;;;;;;4.87;100.00;100919.94;6089317;23;20017;-70
2023/04/15 04:30:28;;;;;;;21.10;10.45;;;;;;;4.77;100.00;100922.97;6088981;23;20013;-70
2023/04/15 04:33:01;;;;;;;24.08;11.48;;;;;;;4.66;100.00;100932.16;6089304;23;20018;-71
2023/04/15 04:35:33;;;;;;;23.08;11.15;;;;;;;4.65;100.00;100932.22;6089320;23;20295;-70
2023/04/15 04:38:00;;;;;;;23.77;12.13;;;;;;;4.83;100.00;100934.19;6088203;23;20819;-70
2023/04/15 04:40:26;;;;;;;22.00;10.48;;;;;;;4.71;100.00;100939.06;6091017;23;20010;-70
2023/04/15 04:42:56;;;;;;;20.58;10.75;;;;;;;4.80;100.00;100951.94;6093163;23;20088;-70
2023/04/15 04:45:22;;;;;;;22.60;12.63;;;;;;;4.92;100.00;100954.13;6093337;23;20614;-71
2023/04/15 04:47:51;;;;;;;23.65;12.88;;;;;;;4.91;100.00;100944.44;6091778;23;20017;-70
2023/04/15 04:50:18;;;;;;;22.48;11.05;;;;;;;4.97;100.00;100946.88;6089790;23;20053;-70
2023/04/15 04:52:47;;;;;;;24.70;11.05;;;;;;;4.99;100.00;100958.22;6092591;23;20020;-70
2023/04/15 04:55:19;;;;;;;23.17;12.38;;;;;;;4.96;100.00;100950.41;6087530;23;20014;-70
2023/04/15 04:57:47;;;;;;;25.92;12.20;;;;;;;5.13;100.00;100953.28;6093055;23;20029;-70
2023/04/15 05:00:12;;;;;;;22.52;11.88;;;;;;;4.80;100.00;100954.56;6093759;23;20093;-70
2023/04/15 05:02:40;;;;;;;23.63;11.82;;;;;;;4.88;100.00;100965.72;6091730;23;20024;-71
2023/04/15 05:05:06;;;;;;;23.17;12.18;;;;;;;4.83;100.00;100965.03;6092556;23;20010;-69
2023/04/15 05:07:33;;;;;;;23.88;11.68;;;;;;;4.86;100.00;100967.53;6092025;23;20643;-69
2023/04/15 05:09:59;;;;;;;22.10;11.30;;;;;;;5.05;100.00;100965.91;6092462;23;20153;-69
2023/04/15 05:12:25;;;;;;;20.88;11.32;;;;;;;4.87;100.00;100964.84;6093091;23;20020;-69
2023/04/15 05:14:50;;;;;;;28.20;12.60;;;;;;;5.11;100.00;100970.97;6092463;23;20826;-72
2023/04/15 05:17:16;;;;;;;28.98;13.20;;;;;;;5.14;100.00;100973.50;6093109;23;20010;-69
2023/04/15 05:19:42;;;;;;;23.23;13.02;;;;;;;5.35;100.00;100981.50;6093442;23;20013;-69
2023/04/15 05:22:08;;;;;;;29.60;13.20;;;;;;;5.37;100.00;100977.91;6094675;23;20096;-69
2023/04/15 05:24:33;;;;;;;19.73;11.52;;;;;;;5.53;100.00;100985.22;6094135;23;20416;-72
2023/04/15 05:27:00;;;;;;;26.00;13.48;;;;;;;5.66;100.00;100986.44;6092844;23;20018;-73
2023/04/15 05:29:26;;;;;;;28.73;13.02;;;;;;;5.71;100.00;100984.44;6095045;23;20378;-71
2023/04/15 05:31:52;;;;;;;23.77;13.25;;;;;;;5.74;100.00;100992.28;6095883;23;20211;-68
2023/04/15 05:34:18;;;;;;;27.45;13.13;;;;;;;6.00;100.00;100985.94;6096117;23;20085;-69
2023/04/15 05:36:44;;;;;;;25.10;12.05;;;;;;;6.29;100.00;100990.00;6097964;23;20104;-71
2023/04/15 05:39:10;;;;;;;23.00;12.00;;;;;;;6.33;100.00;100983.63;6097076;23;20017;-69
2023/04/15 05:41:36;;;;;;;22.98;11.45;;;;;;;6.32;100.00;100984.53;6097279;23;20042;-70
2023/04/15 05:44:02;;;;;;;23.95;12.23;;;;;;;6.65;100.00;100987.50;6098057;23;20476;-70
2023/04/15 05:46:27;;;;;;;25.67;12.07;;;;;;;6.75;100.00;100990.59;6097954;23;20025;-70
2023/04/15 05:48:53;;;;;;;24.63;12.40;;;;;;;6.90;100.00;100997.00;6097839;23;20730;-70
2023/04/15 05:51:19;;;;;;;22.45;11.30;;;;;;;7.01;100.00;100998.22;6098486;23;20018;-70
2023/04/15 05:53:44;;;;;;;24.38;12.32;;;;;;;7.39;100.00;101008.84;6098661;23;20021;-69
2023/04/15 05:56:10;;;;;;;24.70;12.90;;;;;;;7.38;100.00;101015.09;6097453;23;20022;-70
2023/04/15 05:58:35;;;;;;;28.40;12.18;;;;;;;7.44;100.00;101009.47;6098483;23;20014;-69
2023/04/15 06:01:02;;;;;;;23.27;12.10;;;;;;;7.47;100.00;101017.28;6098912;23;20447;-70
2023/04/15 06:03:28;;;;;;;20.45;11.45;;;;;;;7.61;100.00;101021.06;6097850;23;20207;-69
2023/04/15 06:05:54;;;;;;;18.08;11.45;;;;;;;7.96;100.00;101027.31;6098132;23;20010;-70
2023/04/15 06:08:20;;;;;;;18.05;10.20;;;;;;;7.53;100.00;101032.06;6094202;23;20138;-70
2023/04/15 06:10:46;;;;;;;18.52;11.35;;;;;;;8.11;100.00;101031.84;6098157;23;20389;-70
2023/04/15 06:13:11;;;;;;;20.75;10.63;;;;;;;8.13;100.00;101035.28;6101115;23;20018;-70
2023/04/15 06:15:38;;;;;;;17.33;9.88;;;;;;;7.85;100.00;101048.22;6096166;23;20778;-70
2023/04/15 06:18:04;;;;;;;24.73;10.82;;;;;;;7.97;100.00;101045.81;6098043;23;20672;-69
2023/04/15 06:20:30;;;;;;;22.92;10.98;;;;;;;8.03;100.00;101052.63;6094501;23;20026;-70
2023/04/15 06:22:56;;;;;;;25.02;11.35;;;;;;;8.18;100.00;101049.22;6096284;23;20060;-71
2023/04/15 06:25:22;;;;;;;24.27;10.48;;;;;;;8.05;100.00;101053.41;6095998;23;20037;-69
2023/04/15 06:27:48;;;;;;;19.25;11.05;;;;;;;7.86;100.00;101058.75;6094558;23;20020;-70
2023/04/15 06:30:14;;;;;;;18.58;10.65;;;;;;;7.84;100.00;101063.31;6093737;23;20447;-69
2023/04/15 06:32:40;;;;;;;18.02;11.25;;;;;;;7.98;100.00;101068.81;6093218;23;20020;-70
2023/04/15 06:35:06;;;;;;;25.73;11.15;;;;;;;8.18;100.00;101074.91;6093572;23;20426;-69
2023/04/15 06:37:31;;;;;;;23.02;11.32;;;;;;;8.29;100.00;101068.13;6090073;23;20041;-70
2023/04/15 06:39:57;;;;;;;19.73;10.60;;;;;;;8.21;100.00;101080.94;6095634;23;20013;-70
2023/04/15 06:42:23;;;;;;;20.70;11.00;;;;;;;8.37;100.00;101080.19;6091740;23;20436;-69
2023/04/15 06:44:48;;;;;;;17.35;10.60;;;;;;;8.10;100.00;101085.91;6095093;23;20117;-70
2023/04/15 06:47:15;;;;;;;18.88;11.18;;;;;;;8.05;100.00;101088.81;6094434;23;20050;-71
2023/04/15 06:49:44;;;;;;;22.25;10.93;;;;;;;8.18;100.00;101097.03;6094711;23;20018;-70
2023/04/15 06:52:11;;;;;;;19.85;11.35;;;;;;;8.35;100.00;101104.16;6094876;23;20018;-70
2023/04/15 06:54:39;;;;;;;19.58;10.60;;;;;;;8.32;100.00;101096.34;6096790;23;20108;-69
2023/04/15 06:57:06;;;;;;;20.50;11.20;;;;;;;8.42;100.00;101097.63;6094340;23;20014;-71
2023/04/15 06:59:32;;;;;;;20.52;10.77;;;;;;;8.45;100.00;101101.94;6094063;23;20105;-70
2023/04/15 07:01:57;;;;;;;18.73;10.98;;;;;;;8.73;100.00;101098.72;6088912;23;20337;-70
2023/04/15 07:04:23;;;;;;;22.08;10.80;;;;;;;8.65;100.00;101100.94;6093101;23;20397;-69
2023/04/15 07:06:48;;;;;;;20.90;11.13;;;;;;;8.53;100.00;101107.72;6092800;23;20064;-70
2023/04/15 07:09:14;;;;;;;22.05;11.20;;;;;;;8.67;100.00;101102.56;6087092;23;20013;-70
2023/04/15 07:11:40;;;;;;;22.58;11.07;;;;;;;8.97;100.00;101105.41;6090430;23;20082;-70
2023/04/15 07:14:05;;;;;;;17.92;11.02;;;;;;;8.94;100.00;101110.91;6089410;23;20014;-70
2023/04/15 07:16:31;;;;;;;24.20;12.02;;;;;;;9.29;100.00;101117.03;6090032;23;20327;-71
2023/04/15 07:18:58;;;;;;;19.65;11.05;;;;;;;9.24;100.00;101116.44;6092191;23;20117;-69
2023/04/15 07:21:24;;;;;;;21.42;11.38;;;;;;;9.48;100.00;101124.88;6090850;23;20068;-70
2023/04/15 07:23:50;;;;;;;23.23;12.45;;;;;;;9.80;100.00;101132.91;6091098;23;20428;-71
2023/04/15 07:26:18;;;;;;;16.20;8.77;;;;;;;9.85;100.00;101133.50;6092503;23;20041;-70
2023/04/15 07:28:45;;;;;;;21.77;11.82;;;;;;;9.66;100.00;101130.16;6091287;23;20021;-70
2023/04/15 07:31:10;;;;;;;20.83;12.20;;;;;;;10.23;100.00;101133.13;6091591;23;20018;-70
2023/04/15 07:33:36;;;;;;;18.23;10.57;;;;;;;10.16;100.00;101135.31;6091058;23;20442;-70
2023/04/15 07:36:02;;;;;;;19.67;11.07;;;;;;;10.16;100.00;101127.31;6093698;23;20264;-71
2023/04/15 07:38:28;;;;;;;18.60;10.65;;;;;;;10.16;100.00;101139.78;6093000;23;20721;-70
2023/04/15 07:40:55;;;;;;;18.58;10.85;;;;;;;9.96;100.00;101133.75;6093022;23;20080;-70
2023/04/15 07:43:21;;;;;;;22.13;10.50;;;;;;;10.11;100.00;101140.03;6091703;23;20333;-71
2023/04/15 07:45:46;;;;;;;21.17;12.45;;;;;;;10.21;100.00;101140.38;6093066;23;20014;-70
2023/04/15 07:48:12;;;;;;;18.10;9.48;;;;;;;10.19;100.00;101145.81;6094284;23;20731;-69
2023/04/15 07:50:38;;;;;;;20.60;8.80;;;;;;;9.74;100.00;101150.09;6094606;23;20080;-70
2023/04/15 07:53:05;;;;;;;19.90;9.65;;;;;;;10.05;100.00;101151.03;6094060;23;20015;-70
2023/04/15 07:55:31;;;;;;;17.70;10.48;;;;;;;10.09;100.00;101157.91;6094460;23;20033;-70
2023/04/15 07:57:58;;;;;;;17.65;10.10;;;;;;;10.17;100.00;101155.66;6091836;23;20021;-70
2023/04/15 08:00:23;;;;;;;17.15;10.10;;;;;;;10.40;100.00;101158.88;6090688;23;20457;-71
2023/04/15 08:02:51;;;;;;;18.23;10.05;;;;;;;9.97;100.00;101161.25;6092826;23;20018;-71
2023/04/15 08:05:18;;;;;;;17.85;9.68;;;;;;;10.10;100.00;101163.16;6093316;23;20041;-70
2023/04/15 08:07:45;;;;;;;18.33;9.82;;;;;;;10.10;100.00;101162.31;6090412;23;20825;-70
2023/04/15 08:10:11;;;;;;;18.30;8.75;;;;;;;9.77;100.00;101165.88;6092484;23;20022;-70
2023/04/15 08:12:38;;;;;;;16.05;8.65;;;;;;;9.92;100.00;101177.50;6091857;23;20105;-70
2023/04/15 08:15:08;;;;;;;17.52;7.85;;;;;;;10.54;100.00;101173.13;6093452;23;20010;-70
2023/04/15 08:17:36;;;;;;;;;;;;;;;10.37;100.00;101182.09;6094151;23;20010;-71
2023/04/15 08:20:06;;;;;;;12.45;7.68;;;;;;;10.52;100.00;101177.69;6090691;23;19920;-71
2023/04/15 08:22:32;;;;;;;14.57;8.65;;;;;;;10.95;100.00;101171.66;6093840;23;20037;-70
2023/04/15 08:24:58;;;;;;;12.68;7.13;;;;;;;10.37;100.00;101181.22;6093869;23;20440;-71
2023/04/15 08:27:24;;;;;;;13.00;8.38;;;;;;;10.46;100.00;101178.03;6091796;23;20041;-70
2023/04/15 08:29:50;;;;;;;12.98;7.38;;;;;;;10.74;100.00;101179.09;6088227;23;20144;-70
2023/04/15 08:32:16;;;;;;;16.48;7.40;;;;;;;10.71;100.00;101181.94;6088470;23;20096;-71
2023/04/15 08:34:42;;;;;;;11.82;7.57;;;;;;;10.67;100.00;101181.25;6088454;23;20017;-70
2023/04/15 08:37:08;;;;;;;16.67;8.32;;;;;;;11.28;100.00;101176.75;6089621;23;20027;-71
2023/04/15 08:39:34;;;;;;;11.70;7.07;;;;;;;10.89;100.00;101175.50;6090843;23;20442;-70
2023/04/15 08:42:08;;;;;;;10.38;6.63;;;;;;;10.94;100.00;101184.09;6091097;23;20719;-70
2023/04/15 08:44:35;;;;;;;12.50;6.93;;;;;;;10.85;100.00;101187.34;6092177;23;20014;-70
2023/04/15 08:47:02;;;;;;;11.65;6.97;;;;;;;11.40;100.00;101184.03;6115464;23;20124;-70
2023/04/15 08:49:29;;;;;;;11.65;6.28;;;;;;;11.43;100.00;101190.97;6089943;23;20026;-70
2023/04/15 08:51:59;;;;;;;11.27;6.63;;;;;;;11.84;100.00;101196.44;6089935;23;20317;-70
2023/04/15 08:54:27;;;;;;;9.50;6.13;;;;;;;11.81;100.00;101192.13;6091438;23;20018;-69
2023/04/15 08:56:53;;;;;;;10.85;6.93;;;;;;;12.67;98.13;101184.78;6092511;23;20075;-70
2023/04/15 08:59:21;;;;;;;12.85;6.40;;;;;;;12.59;96.84;101191.59;6090146;23;20116;-70
2023/04/15 09:01:50;;;;;;;12.38;6.57;;;;;;;12.32;95.65;101194.28;6091259;23;20034;-70
2023/04/15 09:04:17;;;;;;;11.27;6.03;;;;;;;12.52;91.00;101195.66;6091283;23;20030;-70
2023/04/15 09:06:43;;;;;;;8.30;5.15;;;;;;;12.16;92.26;101205.97;6092958;23;20381;-70
2023/04/15 09:09:09;;;;;;;8.20;4.82;;;;;;;12.41;91.16;101199.03;6094236;23;20029;-70
2023/04/15 09:11:36;;;;;;;8.07;5.22;;;;;;;12.35;93.58;101197.63;6094148;23;20018;-70
2023/04/15 09:14:02;;;;;;;12.00;5.07;;;;;;;12.16;96.50;101221.16;6094672;23;20716;-70
2023/04/15 09:16:31;;;;;;;10.70;5.30;;;;;;;12.07;96.34;101222.56;6093179;23;20773;-69
2023/04/15 09:18:59;;;;;;;8.98;5.53;;;;;;;12.30;90.93;101221.13;6091384;23;20130;-70
2023/04/15 09:21:25;;;;;;;11.77;4.85;;;;;;;11.62;95.44;101228.97;6090860;23;20520;-68
2023/04/15 09:24:00;;;;;;;11.38;5.15;;;;;;;12.14;96.32;101231.06;6093014;23;20010;-70
2023/04/15 09:26:34;;;;;;;8.02;4.72;;;;;;;12.03;94.56;101226.41;6093018;23;20090;-69
2023/04/15 09:29:14;;;;;;;7.57;5.25;;;;;;;12.66;93.18;101227.69;6066147;23;20013;-69
2023/04/15 09:31:42;;;;;;;10.32;5.18;;;;;;;12.09;94.04;101239.38;6093987;23;20025;-69
2023/04/15 09:34:08;;;;;;;9.40;5.13;;;;;;;11.90;93.55;101225.47;6090508;23;20117;-70
2023/04/15 09:36:52;;;;;;;12.45;6.15;;;;;;;12.31;91.00;101243.38;6091155;23;20010;-69
2023/04/15 09:39:19;;;;;;;10.07;5.32;;;;;;;12.42;94.71;101241.72;6091161;23;20022;-70
2023/04/15 09:41:45;;;;;;;8.57;4.38;;;;;;;13.54;89.14;101239.59;6094496;23;20017;-70
2023/04/15 09:44:28;;;;;;;8.25;4.45;;;;;;;13.56;90.92;101239.50;6091934;23;20014;-69
2023/04/15 09:46:54;;;;;;;8.88;4.40;;;;;;;12.86;86.98;101237.94;6091480;23;20077;-69
2023/04/15 09:49:22;;;;;;;6.80;4.35;;;;;;;13.02;89.91;101243.13;6091389;23;20409;-70
2023/04/15 09:51:48;;;;;;;6.97;4.53;;;;;;;13.12;89.27;101254.06;6091665;23;20017;-70
2023/04/15 09:54:20;;;;;;;8.95;5.70;;;;;;;13.57;86.42;101252.78;6090234;23;20024;-71
2023/04/15 09:56:47;;;;;;;;;;;;;;;13.41;88.82;101249.44;6066820;23;20017;-70
2023/04/15 09:59:14;;;;;;;9.85;5.25;;;;;;;12.43;87.60;101246.09;6092054;23;19988;-70
2023/04/15 10:01:41;;;;;;;8.10;4.80;;;;;;;12.32;88.37;101266.47;6088840;23;20017;-70
2023/04/15 10:04:09;;;;;;;10.48;5.07;;;;;;;11.98;90.11;101260.56;6065598;23;20100;-70
2023/04/15 10:06:35;;;;;;;9.75;4.65;;;;;;;12.11;92.21;101276.72;6092469;23;20018;-70
2023/04/15 10:09:01;;;;;;;5.65;3.67;;;;;;;11.87;91.61;101271.09;6091067;23;20064;-70
2023/04/15 10:11:32;;;;;;;9.85;4.95;;;;;;;12.73;91.92;101270.97;6093792;23;20014;-71
2023/04/15 11:18:33;;;;;;;3.10;1.10;;;;;;;22.02;47.36;101252.84;5046901;28;20654;-82
2023/04/15 11:21:04;;;;;;;6.38;1.48;;;;;;;22.10;46.38;101261.06;5033921;28;20196;-81
2023/04/15 11:26:17;;;;;;;1.33;1.10;;;;;;;-144.64;100.00;62968.41;5068729;27;21211;-90
2023/04/15 11:36:06;;;;;;;0.98;0.90;;;;;;;22.42;47.49;101265.81;4905243;27;1650520;-82
2023/04/15 11:40:39;;;;;;;3.55;0.90;;;;;;;22.29;47.89;101257.28;5016872;27;96705;-83
2023/04/15 11:43:15;;;;;;;2.28;0.70;;;;;;;22.21;47.75;101268.94;5038651;27;96927;-84
2023/04/15 11:45:51;;;;;;;3.30;1.10;;;;;;;22.28;47.39;101269.13;5037776;27;97609;-82
2023/04/15 11:48:18;;;;;;;4.18;0.90;;;;;;;;;;4938446;27;755076;-82
2023/04/15 11:53:50;;;;;;;11.90;1.58;;;;;;;18.56;56.36;101332.50;5093664;27;96602;-85
2023/04/15 11:56:20;;;;;;;6.45;1.65;;;;;;;18.74;57.10;101331.91;5085027;27;96918;-85
2023/04/15 11:58:53;;;;;;;3.78;1.52;;;;;;;18.63;57.54;101330.13;5093115;27;98513;-93
2023/04/15 12:01:20;;;;;;;5.28;1.20;;;;;;;18.45;58.60;101329.91;5080597;27;98555;-90
2023/04/15 12:03:47;;;;;;;1.42;0.98;;;;;;;18.37;58.56;101338.72;5098278;27;96697;-87
2023/04/15 12:06:22;;;;;;;5.18;1.38;;;;;;;18.33;58.99;101339.97;5098167;27;96752;-87
2023/04/15 12:08:54;;;;;;;3.42;1.50;;;;;;;18.32;59.08;101343.66;5096350;27;99980;-87
2023/04/15 12:11:30;;;;;;;6.45;1.52;;;;;;;18.21;60.20;101349.13;5098294;27;99245;-87
2023/04/15 12:14:08;;;;;;;2.65;1.45;;;;;;;18.04;60.34;101357.84;5098628;27;96711;-88
2023/04/15 12:17:00;;;;;;;3.90;1.23;;;;;;;18.18;60.14;101362.06;5099101;27;96678;-87
2023/04/15 12:19:44;;;;;;;2.47;1.20;;;;;;;18.18;60.03;101365.59;5097725;27;97368;-94
2023/04/15 12:22:24;;;;;;;5.22;1.40;;;;;;;18.24;60.08;101366.91;5084196;27;97606;-94
2023/04/15 13:38:20;;;;;;;6.50;2.80;;;;;;;12.83;86.46;101435.34;5068963;27;20666;-64
2023/04/15 13:40:45;;;;;;;3.55;1.60;;;;;;;12.81;84.59;101451.50;5075760;27;20100;-65
2023/04/15 13:43:11;;;;;;;6.00;3.67;;;;;;;12.67;88.75;101440.78;5066812;27;20594;-65
2023/04/15 13:45:38;;;;;;;5.95;3.22;;;;;;;12.71;90.51;101445.00;5090663;27;20036;-65
2023/04/15 13:48:04;;;;;;;18.83;4.00;;;;;;;12.33;86.45;101452.72;5075454;27;20815;-65
2023/04/15 13:50:30;;;;;;;6.32;2.30;;;;;;;12.73;83.14;101453.78;5075421;27;20048;-65